CYMJ

Moose Jaw Air Vice Marshal C. M. McEwen Airport

Moose Jaw, Saskatchewan, Canada
METAR CYMJ 160038Z 29011KT 15SM FEW130 SCT160 BKN210 10/02 A2996 RMK AC2AC2CI4 LAST OBS/NEXT 161000 UTC SLP161
Observed Flight Rules
Oct-16 @ 00:38 UTC (5 hours ago) Visual Flight Rules
Wind Visibility Clouds
290° at 11 knots 15 miles
  • Few at 13,000' AGL
  • Scattered at 16,000' AGL
  • Broken at 21,000' AGL
Temperatures Readings
Current 10°C / 50°F
Dewpoint 2°C / 36°F
Humidity 58%
Altimeter 29.96" Hg
Pressure 1016.1 hPa
Elevation 577
METAR CYMJ 160038Z 29011KT 15SM FEW130 SCT160 BKN210 10/02 A2996 RMK AC2AC2CI4 LAST OBS/NEXT 161000 UTC SLP161
Observed Flight Rules
Oct-16 @ 00:38 UTC
(5 hours ago)
VFR
Wind Visibility
290° at 11 knots 15 miles
Clouds
  • Few at 13,000' AGL
  • Scattered at 16,000' AGL
  • Broken at 21,000' AGL
Temperature Dewpoint
10°C / 50°F 2°C / 36°F
Humidity Altimeter Pressure
58% 29.96" Hg 1016.1 hPa